POGODA: Poland

Lotnisko: Katowice

METAR KOD: EPKT


METAR: EPKT 020600Z 03004KT 3000 BR SCT001 BKN002 13/12 Q1027


BLOK
Pogoda METAR
020600Z
Dzien: 02, Godzina: 06:00 UTC.
03004KT
Wiatr z kierunku 030, o predkosci 7 km/h
3000
Widzialnosc pozioma 3000 m.
BR
zamglenia
SCT001
3/8 - 4/8 pokrycia nieba, chmurami o podstawie: 30 metrow
BKN002
5/8 - 7/8 pokrycia nieba, chmurami o podstawie: 60 metrow
13/12
Temperatura: powietrze 13°C, punkt rosy 12°C . Wilgotnosc wzgledna 92 %
Q1027
Cisnienie: 1027 hPa

Pogoda na innym lotnisku

Pogoda Gdansk-Rebiechowo WEATHER Poland  
Pogoda Katowice WEATHER Poland  
Pogoda Krakow WEATHER Poland  
Pogoda Poznan WEATHER Poland  
Pogoda Rzeszow-Jasionka WEATHER Poland  
Pogoda Szczecin WEATHER Poland  
Pogoda Warszawa-Okecie WEATHER Poland  
Pogoda Wroclaw Ii WEATHER Poland  

Pogoda w inny kraju

Strona startowa

(C) by GREGOR 2007
Ogłoszenia Towarzyskie